sensor_id;sensor_type;location;lat;lon;timestamp;pressure;altitude;pressure_sealevel;temperature;humidity
13235;BME280;6683;48.506;9.050;2023-03-20T00:02:19;98334.44;;;12.13;57.66
13235;BME280;6683;48.506;9.050;2023-03-20T00:05:23;98332.69;;;12.20;57.77
13235;BME280;6683;48.506;9.050;2023-03-20T00:08:28;98333.53;;;12.27;57.64
13235;BME280;6683;48.506;9.050;2023-03-20T00:11:35;98333.16;;;12.30;57.76
13235;BME280;6683;48.506;9.050;2023-03-20T00:14:38;98336.84;;;12.35;57.63
13235;BME280;6683;48.506;9.050;2023-03-20T00:17:41;98337.47;;;12.37;57.56
13235;BME280;6683;48.506;9.050;2023-03-20T00:20:44;98334.63;;;12.39;57.48
13235;BME280;6683;48.506;9.050;2023-03-20T00:23:46;98332.78;;;12.39;57.53
13235;BME280;6683;48.506;9.050;2023-03-20T00:26:51;98331.78;;;12.40;57.68
13235;BME280;6683;48.506;9.050;2023-03-20T00:29:55;98336.88;;;12.42;57.77
13235;BME280;6683;48.506;9.050;2023-03-20T00:32:58;98342.19;;;12.42;57.69
13235;BME280;6683;48.506;9.050;2023-03-20T00:36:00;98337.91;;;12.41;57.95
13235;BME280;6683;48.506;9.050;2023-03-20T00:39:03;98339.53;;;12.42;57.87
13235;BME280;6683;48.506;9.050;2023-03-20T00:42:14;98343.81;;;12.43;57.94
13235;BME280;6683;48.506;9.050;2023-03-20T00:45:20;98343.63;;;12.44;57.98
13235;BME280;6683;48.506;9.050;2023-03-20T00:48:22;98345.28;;;12.45;57.96
13235;BME280;6683;48.506;9.050;2023-03-20T00:51:25;98343.41;;;12.46;58.01
13235;BME280;6683;48.506;9.050;2023-03-20T00:54:28;98341.59;;;12.46;58.06
13235;BME280;6683;48.506;9.050;2023-03-20T00:57:39;98339.97;;;12.45;58.03
13235;BME280;6683;48.506;9.050;2023-03-20T01:00:44;98339.16;;;12.45;57.96
13235;BME280;6683;48.506;9.050;2023-03-20T01:03:47;98335.69;;;12.44;57.96
13235;BME280;6683;48.506;9.050;2023-03-20T01:06:50;98344.44;;;12.45;57.87
13235;BME280;6683;48.506;9.050;2023-03-20T01:09:53;98343.63;;;12.44;57.81
13235;BME280;6683;48.506;9.050;2023-03-20T01:12:58;98348.09;;;12.44;57.85
13235;BME280;6683;48.506;9.050;2023-03-20T01:16:02;98342.81;;;12.44;57.92
13235;BME280;6683;48.506;9.050;2023-03-20T01:19:04;98339.97;;;12.45;58.03
13235;BME280;6683;48.506;9.050;2023-03-20T01:22:07;98332.84;;;12.46;57.93
13235;BME280;6683;48.506;9.050;2023-03-20T01:25:09;98342.63;;;12.45;57.99
13235;BME280;6683;48.506;9.050;2023-03-20T01:28:17;98342.63;;;12.45;57.86
13235;BME280;6683;48.506;9.050;2023-03-20T01:31:20;98337.13;;;12.47;57.87
13235;BME280;6683;48.506;9.050;2023-03-20T01:34:23;98338.13;;;12.46;57.97
13235;BME280;6683;48.506;9.050;2023-03-20T01:37:27;98343.41;;;12.46;57.91
13235;BME280;6683;48.506;9.050;2023-03-20T01:40:33;98342.81;;;12.44;57.89
13235;BME280;6683;48.506;9.050;2023-03-20T01:43:43;98345.03;;;12.40;58.18
13235;BME280;6683;48.506;9.050;2023-03-20T01:46:47;98349.28;;;12.41;57.83
13235;BME280;6683;48.506;9.050;2023-03-20T01:50:23;98344.59;;;12.37;58.19
13235;BME280;6683;48.506;9.050;2023-03-20T01:53:28;98349.28;;;12.35;57.91
13235;BME280;6683;48.506;9.050;2023-03-20T01:56:35;98337.88;;;12.34;58.21
13235;BME280;6683;48.506;9.050;2023-03-20T01:59:44;98349.44;;;12.33;58.25
13235;BME280;6683;48.506;9.050;2023-03-20T02:02:49;98350.28;;;12.34;58.25
13235;BME280;6683;48.506;9.050;2023-03-20T02:05:51;98360.03;;;12.33;58.04
13235;BME280;6683;48.506;9.050;2023-03-20T02:08:56;98353.94;;;12.33;58.18
13235;BME280;6683;48.506;9.050;2023-03-20T02:11:58;98365.53;;;12.32;58.01
13235;BME280;6683;48.506;9.050;2023-03-20T02:15:03;98354.53;;;12.28;58.11
13235;BME280;6683;48.506;9.050;2023-03-20T02:18:07;98360.59;;;12.29;58.11
13235;BME280;6683;48.506;9.050;2023-03-20T02:21:45;98363.25;;;12.29;58.25
13235;BME280;6683;48.506;9.050;2023-03-20T02:29:36;98367.56;;;12.30;58.56
13235;BME280;6683;48.506;9.050;2023-03-20T02:33:29;98366.53;;;12.31;58.34
13235;BME280;6683;48.506;9.050;2023-03-20T02:40:34;98367.34;;;12.31;58.42
13235;BME280;6683;48.506;9.050;2023-03-20T02:43:44;98365.31;;;12.33;58.33
13235;BME280;6683;48.506;9.050;2023-03-20T02:46:56;98366.16;;;12.34;58.22
13235;BME280;6683;48.506;9.050;2023-03-20T02:50:11;98365.31;;;12.33;58.18
13235;BME280;6683;48.506;9.050;2023-03-20T02:53:24;98363.50;;;12.34;58.53
13235;BME280;6683;48.506;9.050;2023-03-20T02:56:34;98364.34;;;12.34;58.40
13235;BME280;6683;48.506;9.050;2023-03-20T02:59:44;98362.69;;;12.33;58.67
13235;BME280;6683;48.506;9.050;2023-03-20T03:02:52;98364.53;;;12.33;58.28
13235;BME280;6683;48.506;9.050;2023-03-20T03:06:00;98377.78;;;12.33;58.32
13235;BME280;6683;48.506;9.050;2023-03-20T03:09:10;98370.81;;;12.32;58.50
13235;BME280;6683;48.506;9.050;2023-03-20T03:12:18;98373.47;;;12.32;58.59
13235;BME280;6683;48.506;9.050;2023-03-20T03:15:27;98372.66;;;12.31;58.37
13235;BME280;6683;48.506;9.050;2023-03-20T03:18:32;98373.47;;;12.32;58.40
13235;BME280;6683;48.506;9.050;2023-03-20T03:21:39;98377.78;;;12.33;58.63
13235;BME280;6683;48.506;9.050;2023-03-20T03:24:45;98378.56;;;12.33;58.57
13235;BME280;6683;48.506;9.050;2023-03-20T03:27:58;98381.41;;;12.32;58.62
13235;BME280;6683;48.506;9.050;2023-03-20T03:31:03;98387.53;;;12.32;58.57
13235;BME280;6683;48.506;9.050;2023-03-20T03:34:14;98391.38;;;12.30;58.47
13235;BME280;6683;48.506;9.050;2023-03-20T03:37:26;98385.47;;;12.28;58.64
13235;BME280;6683;48.506;9.050;2023-03-20T03:40:37;98383.81;;;12.27;58.53
13235;BME280;6683;48.506;9.050;2023-03-20T03:43:52;98390.13;;;12.26;58.81
13235;BME280;6683;48.506;9.050;2023-03-20T03:46:59;98392.78;;;12.26;58.75
13235;BME280;6683;48.506;9.050;2023-03-20T03:50:08;98395.78;;;12.23;58.65
13235;BME280;6683;48.506;9.050;2023-03-20T03:53:14;98393.13;;;12.23;58.66
13235;BME280;6683;48.506;9.050;2023-03-20T03:56:22;98400.28;;;12.22;59.05
13235;BME280;6683;48.506;9.050;2023-03-20T03:59:31;98393.34;;;12.21;58.95
13235;BME280;6683;48.506;9.050;2023-03-20T04:02:37;98399.25;;;12.23;58.88
13235;BME280;6683;48.506;9.050;2023-03-20T04:05:43;98399.25;;;12.23;58.79
13235;BME280;6683;48.506;9.050;2023-03-20T04:08:47;98395.41;;;12.26;58.82
13235;BME280;6683;48.506;9.050;2023-03-20T04:11:51;98404.34;;;12.25;58.74
13235;BME280;6683;48.506;9.050;2023-03-20T04:14:55;98406.63;;;12.28;59.10
13235;BME280;6683;48.506;9.050;2023-03-20T04:17:58;98400.31;;;12.29;58.99
13235;BME280;6683;48.506;9.050;2023-03-20T04:21:00;98404.97;;;12.27;58.90
13235;BME280;6683;48.506;9.050;2023-03-20T04:24:03;98398.69;;;12.28;59.15
13235;BME280;6683;48.506;9.050;2023-03-20T04:27:06;98403.97;;;12.28;58.87
13235;BME280;6683;48.506;9.050;2023-03-20T04:30:12;98405.59;;;12.29;59.05
13235;BME280;6683;48.506;9.050;2023-03-20T04:33:15;98401.97;;;12.30;59.10
13235;BME280;6683;48.506;9.050;2023-03-20T04:36:17;98401.97;;;12.30;59.00
13235;BME280;6683;48.506;9.050;2023-03-20T04:39:20;98395.84;;;12.29;58.95
13235;BME280;6683;48.506;9.050;2023-03-20T04:42:22;98390.56;;;12.29;59.14
13235;BME280;6683;48.506;9.050;2023-03-20T04:45:26;98387.06;;;12.29;58.99
13235;BME280;6683;48.506;9.050;2023-03-20T04:48:28;98386.28;;;12.28;58.95
13235;BME280;6683;48.506;9.050;2023-03-20T04:51:31;98387.06;;;12.29;59.05
13235;BME280;6683;48.506;9.050;2023-03-20T04:54:34;98387.06;;;12.29;58.84
13235;BME280;6683;48.506;9.050;2023-03-20T04:57:37;98390.13;;;12.26;58.81
13235;BME280;6683;48.506;9.050;2023-03-20T05:00:40;98401.06;;;12.23;58.94
13235;BME280;6683;48.506;9.050;2023-03-20T05:03:43;98397.81;;;12.21;58.76
13235;BME280;6683;48.506;9.050;2023-03-20T05:06:46;98403.31;;;12.19;58.87
13235;BME280;6683;48.506;9.050;2023-03-20T05:09:49;98397.59;;;12.16;59.26
13235;BME280;6683;48.506;9.050;2023-03-20T05:12:52;98403.88;;;12.15;59.19
13235;BME280;6683;48.506;9.050;2023-03-20T05:15:56;98406.50;;;12.15;59.41
13235;BME280;6683;48.506;9.050;2023-03-20T05:18:58;98417.09;;;12.15;59.31
13235;BME280;6683;48.506;9.050;2023-03-20T05:22:01;98410.81;;;12.16;59.27
13235;BME280;6683;48.506;9.050;2023-03-20T05:25:04;98428.16;;;12.18;59.44
13235;BME280;6683;48.506;9.050;2023-03-20T05:28:07;98432.41;;;12.19;59.30
13235;BME280;6683;48.506;9.050;2023-03-20T05:31:10;98440.97;;;12.21;59.36
13235;BME280;6683;48.506;9.050;2023-03-20T05:34:13;98436.50;;;12.22;59.29
13235;BME280;6683;48.506;9.050;2023-03-20T05:37:15;98430.03;;;12.24;59.11
13235;BME280;6683;48.506;9.050;2023-03-20T05:40:18;98422.09;;;12.24;59.45
13235;BME280;6683;48.506;9.050;2023-03-20T05:43:24;98423.69;;;12.25;59.46
13235;BME280;6683;48.506;9.050;2023-03-20T05:46:28;98417.22;;;12.28;59.10
13235;BME280;6683;48.506;9.050;2023-03-20T05:49:31;98421.13;;;12.32;59.26
13235;BME280;6683;48.506;9.050;2023-03-20T05:52:33;98423.41;;;12.35;59.34
13235;BME280;6683;48.506;9.050;2023-03-20T05:55:36;98428.28;;;12.38;59.24
13235;BME280;6683;48.506;9.050;2023-03-20T05:58:38;98428.28;;;12.38;59.25
13235;BME280;6683;48.506;9.050;2023-03-20T06:01:43;98434.22;;;12.40;59.23
13235;BME280;6683;48.506;9.050;2023-03-20T06:04:46;98445.41;;;12.42;59.27
13235;BME280;6683;48.506;9.050;2023-03-20T06:07:48;98447.88;;;12.43;59.12
13235;BME280;6683;48.506;9.050;2023-03-20T06:10:51;98455.63;;;12.45;59.39
13235;BME280;6683;48.506;9.050;2023-03-20T06:13:54;98453.81;;;12.45;59.34
13235;BME280;6683;48.506;9.050;2023-03-20T06:16:59;98453.81;;;12.45;59.30
13235;BME280;6683;48.506;9.050;2023-03-20T06:20:02;98451.78;;;12.47;59.38
13235;BME280;6683;48.506;9.050;2023-03-20T06:23:05;98448.94;;;12.49;59.36
13235;BME280;6683;48.506;9.050;2023-03-20T06:26:08;98459.75;;;12.54;59.21
13235;BME280;6683;48.506;9.050;2023-03-20T06:29:12;98463.03;;;12.56;59.03
13235;BME280;6683;48.506;9.050;2023-03-20T06:32:17;98464.31;;;12.60;59.26
13235;BME280;6683;48.506;9.050;2023-03-20T06:35:19;98460.28;;;12.64;59.26
13235;BME280;6683;48.506;9.050;2023-03-20T06:38:21;98457.84;;;12.69;59.29
13235;BME280;6683;48.506;9.050;2023-03-20T06:41:24;98460.53;;;12.75;59.15
13235;BME280;6683;48.506;9.050;2023-03-20T06:44:27;98452.84;;;12.80;59.02
13235;BME280;6683;48.506;9.050;2023-03-20T06:47:31;98460.19;;;12.85;58.81
13235;BME280;6683;48.506;9.050;2023-03-20T06:50:33;98451.28;;;12.93;58.87
13235;BME280;6683;48.506;9.050;2023-03-20T06:53:36;98447.84;;;12.99;58.92
13235;BME280;6683;48.506;9.050;2023-03-20T06:56:39;98447.72;;;13.07;58.77
13235;BME280;6683;48.506;9.050;2023-03-20T06:59:42;98454.06;;;13.12;58.86
13235;BME280;6683;48.506;9.050;2023-03-20T07:02:46;98455.53;;;13.21;58.71
13235;BME280;6683;48.506;9.050;2023-03-20T07:05:50;98444.16;;;13.27;58.54
13235;BME280;6683;48.506;9.050;2023-03-20T07:08:52;98441.53;;;13.34;58.52
13235;BME280;6683;48.506;9.050;2023-03-20T07:11:55;98446.44;;;13.43;58.19
13235;BME280;6683;48.506;9.050;2023-03-20T07:14:57;98454.06;;;13.53;58.45
13235;BME280;6683;48.506;9.050;2023-03-20T07:18:01;98461.22;;;13.59;58.29
13235;BME280;6683;48.506;9.050;2023-03-20T07:21:05;98460.81;;;13.69;58.17
13235;BME280;6683;48.506;9.050;2023-03-20T07:24:07;98465.34;;;13.81;58.03
13235;BME280;6683;48.506;9.050;2023-03-20T07:27:10;98471.28;;;13.90;57.95
13235;BME280;6683;48.506;9.050;2023-03-20T07:30:13;98474.59;;;13.98;57.81
13235;BME280;6683;48.506;9.050;2023-03-20T07:33:17;98475.63;;;14.04;57.62
13235;BME280;6683;48.506;9.050;2023-03-20T07:36:21;98485.84;;;14.07;57.67
13235;BME280;6683;48.506;9.050;2023-03-20T07:39:23;98490.13;;;14.08;57.46
13235;BME280;6683;48.506;9.050;2023-03-20T07:42:26;98486.66;;;14.07;57.51
13235;BME280;6683;48.506;9.050;2023-03-20T07:45:28;98483.19;;;14.07;57.18
13235;BME280;6683;48.506;9.050;2023-03-20T07:48:32;98486.88;;;14.06;57.17
13235;BME280;6683;48.506;9.050;2023-03-20T07:51:34;98490.31;;;14.06;57.12
13235;BME280;6683;48.506;9.050;2023-03-20T07:54:36;98484.84;;;14.08;57.07
13235;BME280;6683;48.506;9.050;2023-03-20T07:57:38;98484.19;;;14.12;57.12
13235;BME280;6683;48.506;9.050;2023-03-20T08:00:41;98486.25;;;14.17;56.93
13235;BME280;6683;48.506;9.050;2023-03-20T08:03:44;98486.28;;;14.23;56.84
13235;BME280;6683;48.506;9.050;2023-03-20T08:06:47;98494.28;;;14.30;56.77
13235;BME280;6683;48.506;9.050;2023-03-20T08:09:50;98498.16;;;14.34;56.63
13235;BME280;6683;48.506;9.050;2023-03-20T08:12:53;98492.03;;;14.33;56.55
13235;BME280;6683;48.506;9.050;2023-03-20T08:15:56;98493.06;;;14.39;56.54
13235;BME280;6683;48.506;9.050;2023-03-20T08:19:00;98490.44;;;14.46;56.50
13235;BME280;6683;48.506;9.050;2023-03-20T08:22:03;98496.31;;;14.54;56.47
13235;BME280;6683;48.506;9.050;2023-03-20T08:25:07;98488.78;;;14.58;56.30
13235;BME280;6683;48.506;9.050;2023-03-20T08:28:10;98490.84;;;14.62;56.08
13235;BME280;6683;48.506;9.050;2023-03-20T08:31:13;98484.69;;;14.68;56.20
13235;BME280;6683;48.506;9.050;2023-03-20T08:34:17;98483.44;;;14.71;56.03
13235;BME280;6683;48.506;9.050;2023-03-20T08:37:20;98494.06;;;14.77;56.32
13235;BME280;6683;48.506;9.050;2023-03-20T08:40:22;98489.19;;;14.81;55.78
13235;BME280;6683;48.506;9.050;2023-03-20T08:43:25;98494.28;;;14.82;55.88
13235;BME280;6683;48.506;9.050;2023-03-20T08:46:27;98492.25;;;14.91;55.52
13235;BME280;6683;48.506;9.050;2023-03-20T08:49:31;98485.88;;;14.98;55.31
13235;BME280;6683;48.506;9.050;2023-03-20T08:52:34;98484.88;;;15.06;55.18
13235;BME280;6683;48.506;9.050;2023-03-20T08:55:37;98491.78;;;15.13;55.14
13235;BME280;6683;48.506;9.050;2023-03-20T08:58:39;98481.75;;;15.22;54.93
13235;BME280;6683;48.506;9.050;2023-03-20T09:01:41;98484.78;;;15.32;54.72
13235;BME280;6683;48.506;9.050;2023-03-20T09:04:45;98486.81;;;15.50;54.52
13235;BME280;6683;48.506;9.050;2023-03-20T09:07:47;98478.75;;;15.63;54.30
13235;BME280;6683;48.506;9.050;2023-03-20T09:10:51;98487.28;;;15.78;54.21
13235;BME280;6683;48.506;9.050;2023-03-20T09:13:54;98475.13;;;15.95;54.04
13235;BME280;6683;48.506;9.050;2023-03-20T09:16:56;98481.78;;;16.11;53.85
13235;BME280;6683;48.506;9.050;2023-03-20T09:20:00;98479.19;;;16.35;53.38
13235;BME280;6683;48.506;9.050;2023-03-20T09:23:02;98486.81;;;16.56;52.84
13235;BME280;6683;48.506;9.050;2023-03-20T09:26:05;98480.91;;;16.79;52.62
13235;BME280;6683;48.506;9.050;2023-03-20T09:29:07;98494.31;;;16.91;52.36
13235;BME280;6683;48.506;9.050;2023-03-20T09:32:11;98491.06;;;17.07;51.82
13235;BME280;6683;48.506;9.050;2023-03-20T09:35:16;98493.97;;;17.23;51.90
13235;BME280;6683;48.506;9.050;2023-03-20T09:38:19;98489.84;;;17.45;51.34
13235;BME280;6683;48.506;9.050;2023-03-20T09:41:25;98489.44;;;17.67;51.22
13235;BME280;6683;48.506;9.050;2023-03-20T09:44:44;98485.63;;;17.74;50.63
13235;BME280;6683;48.506;9.050;2023-03-20T09:48:00;98487.03;;;17.77;50.73
13235;BME280;6683;48.506;9.050;2023-03-20T09:51:18;98479.13;;;17.70;50.42
13235;BME280;6683;48.506;9.050;2023-03-20T09:54:26;98481.94;;;17.57;50.12
13235;BME280;6683;48.506;9.050;2023-03-20T09:57:36;98483.66;;;17.51;50.26
13235;BME280;6683;48.506;9.050;2023-03-20T10:00:44;98480.91;;;17.58;50.18
13235;BME280;6683;48.506;9.050;2023-03-20T10:03:52;98480.44;;;17.61;49.95
13235;BME280;6683;48.506;9.050;2023-03-20T10:06:56;98479.03;;;17.58;49.89
13235;BME280;6683;48.506;9.050;2023-03-20T10:09:58;98484.16;;;17.60;49.69
13235;BME280;6683;48.506;9.050;2023-03-20T10:13:12;98482.91;;;17.63;49.58
13235;BME280;6683;48.506;9.050;2023-03-20T10:16:35;98483.94;;;17.62;49.38
13235;BME280;6683;48.506;9.050;2023-03-20T10:19:43;98482.22;;;17.49;49.15
13235;BME280;6683;48.506;9.050;2023-03-20T10:22:52;98479.91;;;17.34;49.01
13235;BME280;6683;48.506;9.050;2023-03-20T10:26:02;98476.59;;;17.21;49.01
13235;BME280;6683;48.506;9.050;2023-03-20T10:29:18;98491.19;;;17.18;48.72
13235;BME280;6683;48.506;9.050;2023-03-20T10:32:31;98482.34;;;17.18;48.87
13235;BME280;6683;48.506;9.050;2023-03-20T10:35:42;98480.28;;;17.20;48.50
13235;BME280;6683;48.506;9.050;2023-03-20T10:38:55;98486.44;;;17.20;48.45
13235;BME280;6683;48.506;9.050;2023-03-20T10:42:06;98494.81;;;17.24;48.63
13235;BME280;6683;48.506;9.050;2023-03-20T10:45:26;98486.97;;;17.29;48.17
13235;BME280;6683;48.506;9.050;2023-03-20T10:48:33;98494.09;;;17.35;47.96
13235;BME280;6683;48.506;9.050;2023-03-20T10:51:41;98492.13;;;17.42;47.92
13235;BME280;6683;48.506;9.050;2023-03-20T10:54:52;98483.88;;;17.50;47.48
13235;BME280;6683;48.506;9.050;2023-03-20T10:58:02;98480.31;;;17.56;47.33
13235;BME280;6683;48.506;9.050;2023-03-20T11:01:07;98473.47;;;17.78;47.16
13235;BME280;6683;48.506;9.050;2023-03-20T11:04:10;98474.56;;;18.18;46.56
13235;BME280;6683;48.506;9.050;2023-03-20T11:07:21;98477.31;;;18.53;46.31
13235;BME280;6683;48.506;9.050;2023-03-20T11:10:27;98464.69;;;18.83;45.87
13235;BME280;6683;48.506;9.050;2023-03-20T11:13:34;98458.63;;;18.99;45.54
13235;BME280;6683;48.506;9.050;2023-03-20T11:16:38;98459.78;;;19.15;45.05
13235;BME280;6683;48.506;9.050;2023-03-20T11:19:41;98462.91;;;19.24;44.72
13235;BME280;6683;48.506;9.050;2023-03-20T11:22:43;98456.41;;;19.20;44.46
13235;BME280;6683;48.506;9.050;2023-03-20T11:25:55;98464.78;;;19.11;44.44
13235;BME280;6683;48.506;9.050;2023-03-20T11:28:59;98460.63;;;19.04;44.37
13235;BME280;6683;48.506;9.050;2023-03-20T11:32:14;98460.81;;;19.02;44.23
13235;BME280;6683;48.506;9.050;2023-03-20T11:35:25;98461.28;;;19.11;44.03
13235;BME280;6683;48.506;9.050;2023-03-20T11:38:31;98461.78;;;19.08;43.85
13235;BME280;6683;48.506;9.050;2023-03-20T11:41:45;98457.94;;;19.04;43.85
13235;BME280;6683;48.506;9.050;2023-03-20T11:45:00;98456.88;;;19.17;43.80
13235;BME280;6683;48.506;9.050;2023-03-20T11:48:04;98449.19;;;19.20;44.03
13235;BME280;6683;48.506;9.050;2023-03-20T11:51:09;98457.91;;;19.27;43.79
13235;BME280;6683;48.506;9.050;2023-03-20T11:54:16;98459.63;;;19.56;43.82
13235;BME280;6683;48.506;9.050;2023-03-20T11:57:31;98452.31;;;20.53;42.88
13235;BME280;6683;48.506;9.050;2023-03-20T12:00:37;98440.84;;;21.29;41.88
13235;BME280;6683;48.506;9.050;2023-03-20T12:03:49;98440.91;;;21.56;41.03
13235;BME280;6683;48.506;9.050;2023-03-20T12:06:59;98440.50;;;21.42;40.82
13235;BME280;6683;48.506;9.050;2023-03-20T12:10:05;98435.53;;;21.77;40.39
13235;BME280;6683;48.506;9.050;2023-03-20T12:13:15;98440.94;;;22.31;39.83
13235;BME280;6683;48.506;9.050;2023-03-20T12:16:21;98433.84;;;22.51;39.29
13235;BME280;6683;48.506;9.050;2023-03-20T12:19:28;98430.56;;;22.44;38.87
13235;BME280;6683;48.506;9.050;2023-03-20T12:22:36;98419.25;;;22.10;38.84
13235;BME280;6683;48.506;9.050;2023-03-20T12:25:48;98426.25;;;21.63;39.16
13235;BME280;6683;48.506;9.050;2023-03-20T12:28:59;98414.63;;;21.14;39.57
13235;BME280;6683;48.506;9.050;2023-03-20T12:32:09;98406.47;;;20.71;40.12
13235;BME280;6683;48.506;9.050;2023-03-20T12:35:19;98415.97;;;20.29;40.27
13235;BME280;6683;48.506;9.050;2023-03-20T12:38:29;98407.78;;;19.90;40.56
13235;BME280;6683;48.506;9.050;2023-03-20T12:41:39;98412.78;;;19.59;40.81
13235;BME280;6683;48.506;9.050;2023-03-20T12:44:49;98418.25;;;19.36;41.16
13235;BME280;6683;48.506;9.050;2023-03-20T12:48:06;98415.91;;;19.16;41.28
13235;BME280;6683;48.506;9.050;2023-03-20T12:51:23;98415.25;;;18.97;41.46
13235;BME280;6683;48.506;9.050;2023-03-20T12:54:55;98422.69;;;18.84;41.73
13235;BME280;6683;48.506;9.050;2023-03-20T12:58:22;98419.69;;;18.80;41.87
13235;BME280;6683;48.506;9.050;2023-03-20T13:01:31;98409.56;;;18.71;41.84
13235;BME280;6683;48.506;9.050;2023-03-20T13:04:49;98408.72;;;18.59;41.92
13235;BME280;6683;48.506;9.050;2023-03-20T13:11:32;98408.94;;;18.34;42.01
13235;BME280;6683;48.506;9.050;2023-03-20T13:14:42;98404.97;;;18.25;42.29
13235;BME280;6683;48.506;9.050;2023-03-20T13:17:51;98400.31;;;18.20;42.50
13235;BME280;6683;48.506;9.050;2023-03-20T13:21:03;98392.16;;;18.15;42.23
13235;BME280;6683;48.506;9.050;2023-03-20T13:24:36;98397.50;;;18.04;42.39
13235;BME280;6683;48.506;9.050;2023-03-20T13:27:44;98392.50;;;17.96;42.59
13235;BME280;6683;48.506;9.050;2023-03-20T13:30:55;98393.59;;;17.88;42.40
13235;BME280;6683;48.506;9.050;2023-03-20T13:34:10;98392.91;;;17.81;42.28
13235;BME280;6683;48.506;9.050;2023-03-20T13:37:18;98392.19;;;17.74;42.64
13235;BME280;6683;48.506;9.050;2023-03-20T13:40:26;98383.22;;;17.69;42.53
13235;BME280;6683;48.506;9.050;2023-03-20T13:43:34;98383.91;;;17.64;42.86
13235;BME280;6683;48.506;9.050;2023-03-20T13:46:42;98382.50;;;17.62;42.58
13235;BME280;6683;48.506;9.050;2023-03-20T13:49:55;98372.66;;;17.62;42.58
13235;BME280;6683;48.506;9.050;2023-03-20T13:53:05;98369.88;;;17.69;42.47
13235;BME280;6683;48.506;9.050;2023-03-20T13:56:20;98367.72;;;17.77;42.43
13235;BME280;6683;48.506;9.050;2023-03-20T13:59:39;98360.06;;;17.92;42.53
13235;BME280;6683;48.506;9.050;2023-03-20T14:03:13;98360.69;;;18.06;42.36
13235;BME280;6683;48.506;9.050;2023-03-20T14:06:51;98363.84;;;18.14;42.11
13235;BME280;6683;48.506;9.050;2023-03-20T14:09:54;98361.28;;;18.19;42.04
13235;BME280;6683;48.506;9.050;2023-03-20T14:13:00;98349.31;;;18.22;41.84
13235;BME280;6683;48.506;9.050;2023-03-20T14:16:09;98353.97;;;18.26;41.65
13235;BME280;6683;48.506;9.050;2023-03-20T14:19:17;98344.31;;;18.25;41.50
13235;BME280;6683;48.506;9.050;2023-03-20T14:22:25;98343.84;;;18.28;41.32
13235;BME280;6683;48.506;9.050;2023-03-20T14:25:33;98356.63;;;18.26;41.33
13235;BME280;6683;48.506;9.050;2023-03-20T14:28:51;98361.41;;;18.24;41.43
13235;BME280;6683;48.506;9.050;2023-03-20T14:32:22;98368.00;;;18.22;41.19
13235;BME280;6683;48.506;9.050;2023-03-20T14:35:35;98365.34;;;18.22;41.56
13235;BME280;6683;48.506;9.050;2023-03-20T14:38:52;98356.88;;;18.25;41.49
13235;BME280;6683;48.506;9.050;2023-03-20T14:42:16;98353.38;;;18.24;41.23
13235;BME280;6683;48.506;9.050;2023-03-20T14:45:30;98356.88;;;18.25;41.45
13235;BME280;6683;48.506;9.050;2023-03-20T14:48:41;98354.78;;;18.27;41.46
13235;BME280;6683;48.506;9.050;2023-03-20T14:51:47;98346.19;;;18.25;41.37
13235;BME280;6683;48.506;9.050;2023-03-20T14:54:54;98354.91;;;18.20;41.27
13235;BME280;6683;48.506;9.050;2023-03-20T14:58:01;98348.50;;;18.21;41.40
13235;BME280;6683;48.506;9.050;2023-03-20T15:01:05;98343.16;;;18.21;41.35
13235;BME280;6683;48.506;9.050;2023-03-20T15:04:24;98342.47;;;18.14;41.18
13235;BME280;6683;48.506;9.050;2023-03-20T15:07:30;98332.72;;;18.08;41.45
13235;BME280;6683;48.506;9.050;2023-03-20T15:10:46;98341.50;;;18.09;41.62
13235;BME280;6683;48.506;9.050;2023-03-20T15:13:50;98350.44;;;18.03;41.48
13235;BME280;6683;48.506;9.050;2023-03-20T15:16:57;98347.09;;;17.96;41.31
13235;BME280;6683;48.506;9.050;2023-03-20T15:20:05;98347.53;;;17.93;41.57
13235;BME280;6683;48.506;9.050;2023-03-20T15:23:08;98340.00;;;17.90;41.56
13235;BME280;6683;48.506;9.050;2023-03-20T15:26:14;98341.69;;;17.84;41.62
13235;BME280;6683;48.506;9.050;2023-03-20T15:29:18;98335.19;;;17.80;41.73
13235;BME280;6683;48.506;9.050;2023-03-20T15:32:21;98337.53;;;17.77;41.86
13235;BME280;6683;48.506;9.050;2023-03-20T15:35:26;98340.03;;;17.72;41.82
13235;BME280;6683;48.506;9.050;2023-03-20T15:38:33;98345.03;;;17.68;42.10
13235;BME280;6683;48.506;9.050;2023-03-20T15:41:38;98338.75;;;17.63;41.99
13235;BME280;6683;48.506;9.050;2023-03-20T15:44:42;98339.44;;;17.58;42.08
13235;BME280;6683;48.506;9.050;2023-03-20T15:47:45;98336.63;;;17.53;42.01
13235;BME280;6683;48.506;9.050;2023-03-20T15:50:50;98333.81;;;17.48;42.18
13235;BME280;6683;48.506;9.050;2023-03-20T15:53:54;98341.19;;;17.46;42.13
13235;BME280;6683;48.506;9.050;2023-03-20T15:56:59;98341.06;;;17.41;42.14
13235;BME280;6683;48.506;9.050;2023-03-20T16:00:05;98339.91;;;17.37;42.14
13235;BME280;6683;48.506;9.050;2023-03-20T16:03:13;98334.41;;;17.32;42.37
13235;BME280;6683;48.506;9.050;2023-03-20T16:06:19;98338.16;;;17.31;42.54
13235;BME280;6683;48.506;9.050;2023-03-20T16:09:22;98335.69;;;17.29;42.55
13235;BME280;6683;48.506;9.050;2023-03-20T16:12:27;98330.56;;;17.28;42.39
13235;BME280;6683;48.506;9.050;2023-03-20T16:15:30;98328.81;;;17.22;42.35
13235;BME280;6683;48.506;9.050;2023-03-20T16:18:37;98332.38;;;17.16;42.21
13235;BME280;6683;48.506;9.050;2023-03-20T16:21:45;98330.38;;;17.11;42.46
13235;BME280;6683;48.506;9.050;2023-03-20T16:24:52;98325.94;;;17.05;42.57
13235;BME280;6683;48.506;9.050;2023-03-20T16:27:58;98318.63;;;17.01;42.80
13235;BME280;6683;48.506;9.050;2023-03-20T16:31:10;98317.66;;;16.95;42.79
13235;BME280;6683;48.506;9.050;2023-03-20T16:34:18;98319.16;;;16.91;42.66
13235;BME280;6683;48.506;9.050;2023-03-20T16:37:26;98321.66;;;16.86;42.70
13235;BME280;6683;48.506;9.050;2023-03-20T16:40:31;98318.63;;;16.83;42.79
13235;BME280;6683;48.506;9.050;2023-03-20T16:43:37;98311.31;;;16.78;42.82
13235;BME280;6683;48.506;9.050;2023-03-20T16:46:57;98311.97;;;16.73;42.90
13235;BME280;6683;48.506;9.050;2023-03-20T16:50:16;98313.44;;;16.69;43.03
13235;BME280;6683;48.506;9.050;2023-03-20T16:53:19;98325.81;;;16.64;43.17
13235;BME280;6683;48.506;9.050;2023-03-20T16:56:26;98316.84;;;16.58;43.26